sensor_id;sensor_type;location;lat;lon;timestamp;temperature;humidity
27922;DHT22;15261;50.356;10.340;2022-10-16T17:02:19;16.80;99.90
27922;DHT22;15261;50.356;10.340;2022-10-16T17:04:45;16.80;99.90
27922;DHT22;15261;50.356;10.340;2022-10-16T17:07:11;16.80;99.90
27922;DHT22;15261;50.356;10.340;2022-10-16T17:09:36;16.80;99.90
27922;DHT22;15261;50.356;10.340;2022-10-16T17:12:02;16.80;99.90
27922;DHT22;15261;50.356;10.340;2022-10-16T17:14:27;16.70;99.90
27922;DHT22;15261;50.356;10.340;2022-10-16T17:16:53;16.70;99.90
27922;DHT22;15261;50.356;10.340;2022-10-16T17:19:19;16.70;99.90
27922;DHT22;15261;50.356;10.340;2022-10-16T17:21:47;16.70;99.90
27922;DHT22;15261;50.356;10.340;2022-10-16T17:24:13;16.70;99.90
27922;DHT22;15261;50.356;10.340;2022-10-16T17:26:40;16.70;99.90
27922;DHT22;15261;50.356;10.340;2022-10-16T17:29:10;16.60;99.90
27922;DHT22;15261;50.356;10.340;2022-10-16T17:31:36;16.60;99.90
27922;DHT22;15261;50.356;10.340;2022-10-16T17:34:04;16.50;99.90
27922;DHT22;15261;50.356;10.340;2022-10-16T17:36:32;16.50;99.90
27922;DHT22;15261;50.356;10.340;2022-10-16T17:39:04;16.40;99.90
27922;DHT22;15261;50.356;10.340;2022-10-16T17:41:31;16.40;99.90
27922;DHT22;15261;50.356;10.340;2022-10-16T17:43:57;16.40;99.90
27922;DHT22;15261;50.356;10.340;2022-10-16T17:46:24;16.40;99.90
27922;DHT22;15261;50.356;10.340;2022-10-16T17:48:51;16.40;99.90
27922;DHT22;15261;50.356;10.340;2022-10-16T17:51:27;16.40;99.90
27922;DHT22;15261;50.356;10.340;2022-10-16T17:53:55;16.40;99.90
27922;DHT22;15261;50.356;10.340;2022-10-16T17:56:21;16.40;99.90
27922;DHT22;15261;50.356;10.340;2022-10-16T17:58:52;16.40;99.90
27922;DHT22;15261;50.356;10.340;2022-10-16T18:01:24;16.40;99.90
27922;DHT22;15261;50.356;10.340;2022-10-16T18:03:56;16.40;99.90
27922;DHT22;15261;50.356;10.340;2022-10-16T18:06:22;16.40;99.90
27922;DHT22;15261;50.356;10.340;2022-10-16T18:08:48;16.40;99.90
27922;DHT22;15261;50.356;10.340;2022-10-16T18:11:14;16.50;99.90
27922;DHT22;15261;50.356;10.340;2022-10-16T18:13:40;16.50;99.90
27922;DHT22;15261;50.356;10.340;2022-10-16T18:16:08;16.50;99.90
27922;DHT22;15261;50.356;10.340;2022-10-16T18:18:36;16.50;99.90
27922;DHT22;15261;50.356;10.340;2022-10-16T18:21:03;16.50;99.90
27922;DHT22;15261;50.356;10.340;2022-10-16T18:23:29;16.50;99.90
27922;DHT22;15261;50.356;10.340;2022-10-16T18:25:55;16.50;99.90
27922;DHT22;15261;50.356;10.340;2022-10-16T18:28:21;16.50;99.90
27922;DHT22;15261;50.356;10.340;2022-10-16T18:30:58;16.50;99.90
27922;DHT22;15261;50.356;10.340;2022-10-16T18:33:24;16.50;99.90
27922;DHT22;15261;50.356;10.340;2022-10-16T18:35:50;16.50;99.90
27922;DHT22;15261;50.356;10.340;2022-10-16T18:38:16;16.50;99.90
27922;DHT22;15261;50.356;10.340;2022-10-16T18:40:42;16.50;99.90
27922;DHT22;15261;50.356;10.340;2022-10-16T18:43:08;16.50;99.90
27922;DHT22;15261;50.356;10.340;2022-10-16T18:45:33;16.50;99.90
27922;DHT22;15261;50.356;10.340;2022-10-16T18:47:59;16.50;99.90
27922;DHT22;15261;50.356;10.340;2022-10-16T18:50:25;16.40;99.90
27922;DHT22;15261;50.356;10.340;2022-10-16T18:52:50;16.40;99.90
27922;DHT22;15261;50.356;10.340;2022-10-16T18:55:17;16.40;99.90
27922;DHT22;15261;50.356;10.340;2022-10-16T18:57:43;16.40;99.90
27922;DHT22;15261;50.356;10.340;2022-10-16T19:00:09;16.40;99.90
27922;DHT22;15261;50.356;10.340;2022-10-16T19:02:34;16.30;99.90
27922;DHT22;15261;50.356;10.340;2022-10-16T19:05:00;16.30;99.90
27922;DHT22;15261;50.356;10.340;2022-10-16T19:07:26;16.30;99.90
27922;DHT22;15261;50.356;10.340;2022-10-16T19:09:52;16.30;99.90
27922;DHT22;15261;50.356;10.340;2022-10-16T19:12:17;16.30;99.90
27922;DHT22;15261;50.356;10.340;2022-10-16T19:17:33;16.20;99.90
27922;DHT22;15261;50.356;10.340;2022-10-16T19:20:01;16.20;99.90
27922;DHT22;15261;50.356;10.340;2022-10-16T19:22:27;16.10;99.90
27922;DHT22;15261;50.356;10.340;2022-10-16T19:25:02;16.10;99.90
27922;DHT22;15261;50.356;10.340;2022-10-16T19:27:28;16.00;99.90
27922;DHT22;15261;50.356;10.340;2022-10-16T19:29:53;16.00;99.90
27922;DHT22;15261;50.356;10.340;2022-10-16T19:32:19;15.90;99.90
27922;DHT22;15261;50.356;10.340;2022-10-16T19:34:49;15.90;99.90
27922;DHT22;15261;50.356;10.340;2022-10-16T19:37:15;15.80;99.90
27922;DHT22;15261;50.356;10.340;2022-10-16T19:39:48;15.70;99.90
27922;DHT22;15261;50.356;10.340;2022-10-16T19:48:57;15.60;99.90
27922;DHT22;15261;50.356;10.340;2022-10-16T19:51:24;15.50;99.90
27922;DHT22;15261;50.356;10.340;2022-10-16T19:53:58;15.50;99.90
27922;DHT22;15261;50.356;10.340;2022-10-16T19:56:46;15.50;99.90
27922;DHT22;15261;50.356;10.340;2022-10-16T19:59:12;15.50;99.90
27922;DHT22;15261;50.356;10.340;2022-10-16T20:01:40;15.40;99.90
27922;DHT22;15261;50.356;10.340;2022-10-16T20:04:13;15.50;99.90
27922;DHT22;15261;50.356;10.340;2022-10-16T20:06:42;15.50;99.90
27922;DHT22;15261;50.356;10.340;2022-10-16T20:12:24;15.50;99.90
27922;DHT22;15261;50.356;10.340;2022-10-16T20:18:11;15.30;99.90
27922;DHT22;15261;50.356;10.340;2022-10-16T20:20:47;15.30;99.90
27922;DHT22;15261;50.356;10.340;2022-10-16T20:23:25;15.20;99.90
27922;DHT22;15261;50.356;10.340;2022-10-16T20:26:16;15.10;99.90
27922;DHT22;15261;50.356;10.340;2022-10-16T20:28:42;15.00;99.90
27922;DHT22;15261;50.356;10.340;2022-10-16T20:31:19;14.90;99.90
27922;DHT22;15261;50.356;10.340;2022-10-16T20:33:50;14.90;99.90
27922;DHT22;15261;50.356;10.340;2022-10-16T20:36:17;14.80;99.90
27922;DHT22;15261;50.356;10.340;2022-10-16T20:42:00;14.70;99.90
27922;DHT22;15261;50.356;10.340;2022-10-16T20:44:26;14.70;99.90
27922;DHT22;15261;50.356;10.340;2022-10-16T20:46:53;14.60;99.90
27922;DHT22;15261;50.356;10.340;2022-10-16T20:49:20;14.50;99.90
27922;DHT22;15261;50.356;10.340;2022-10-16T20:51:46;14.50;99.90
27922;DHT22;15261;50.356;10.340;2022-10-16T20:54:20;14.50;99.90
27922;DHT22;15261;50.356;10.340;2022-10-16T20:56:46;14.40;99.90
27922;DHT22;15261;50.356;10.340;2022-10-16T20:59:12;14.30;99.90
27922;DHT22;15261;50.356;10.340;2022-10-16T21:01:47;14.30;99.90
27922;DHT22;15261;50.356;10.340;2022-10-16T21:04:12;14.20;99.90
27922;DHT22;15261;50.356;10.340;2022-10-16T21:06:38;14.30;99.90
27922;DHT22;15261;50.356;10.340;2022-10-16T21:09:05;14.30;99.90
27922;DHT22;15261;50.356;10.340;2022-10-16T21:11:32;14.30;99.90
27922;DHT22;15261;50.356;10.340;2022-10-16T21:14:01;14.30;99.90
27922;DHT22;15261;50.356;10.340;2022-10-16T21:16:27;14.20;99.90
27922;DHT22;15261;50.356;10.340;2022-10-16T21:19:06;14.20;99.90
27922;DHT22;15261;50.356;10.340;2022-10-16T21:21:34;14.20;99.90
27922;DHT22;15261;50.356;10.340;2022-10-16T21:24:02;14.20;99.90
27922;DHT22;15261;50.356;10.340;2022-10-16T21:26:28;14.10;99.90
27922;DHT22;15261;50.356;10.340;2022-10-16T21:28:59;14.10;99.90
27922;DHT22;15261;50.356;10.340;2022-10-16T21:31:26;14.00;99.90
27922;DHT22;15261;50.356;10.340;2022-10-16T21:34:14;14.00;99.90
27922;DHT22;15261;50.356;10.340;2022-10-16T21:36:40;13.90;99.90
27922;DHT22;15261;50.356;10.340;2022-10-16T21:39:15;13.90;99.90
27922;DHT22;15261;50.356;10.340;2022-10-16T21:41:42;13.90;99.90
27922;DHT22;15261;50.356;10.340;2022-10-16T21:44:08;13.80;99.90
27922;DHT22;15261;50.356;10.340;2022-10-16T21:46:36;13.80;99.90
27922;DHT22;15261;50.356;10.340;2022-10-16T21:49:04;13.70;99.90
27922;DHT22;15261;50.356;10.340;2022-10-16T21:51:33;13.70;99.90
27922;DHT22;15261;50.356;10.340;2022-10-16T21:53:59;13.70;99.90
27922;DHT22;15261;50.356;10.340;2022-10-16T21:56:25;13.70;99.90
27922;DHT22;15261;50.356;10.340;2022-10-16T21:58:51;13.70;99.90
27922;DHT22;15261;50.356;10.340;2022-10-16T22:01:18;13.60;99.90
27922;DHT22;15261;50.356;10.340;2022-10-16T22:03:45;13.60;99.90
27922;DHT22;15261;50.356;10.340;2022-10-16T22:06:12;13.50;99.90
27922;DHT22;15261;50.356;10.340;2022-10-16T22:08:38;13.50;99.90
27922;DHT22;15261;50.356;10.340;2022-10-16T22:11:28;13.50;99.90
27922;DHT22;15261;50.356;10.340;2022-10-16T22:13:53;13.50;99.90
27922;DHT22;15261;50.356;10.340;2022-10-16T22:16:24;13.50;99.90
27922;DHT22;15261;50.356;10.340;2022-10-16T22:18:54;13.50;99.90
27922;DHT22;15261;50.356;10.340;2022-10-16T22:21:20;13.40;99.90
27922;DHT22;15261;50.356;10.340;2022-10-16T22:23:46;13.40;99.90
27922;DHT22;15261;50.356;10.340;2022-10-16T22:26:39;13.30;99.90
27922;DHT22;15261;50.356;10.340;2022-10-16T22:29:05;13.40;99.90
27922;DHT22;15261;50.356;10.340;2022-10-16T22:31:31;13.40;99.90
27922;DHT22;15261;50.356;10.340;2022-10-16T22:33:59;13.40;99.90
27922;DHT22;15261;50.356;10.340;2022-10-16T22:36:25;13.40;99.90
27922;DHT22;15261;50.356;10.340;2022-10-16T22:38:51;13.40;99.90
27922;DHT22;15261;50.356;10.340;2022-10-16T22:41:17;13.40;99.90
27922;DHT22;15261;50.356;10.340;2022-10-16T22:43:45;13.30;99.90
27922;DHT22;15261;50.356;10.340;2022-10-16T22:46:15;13.20;99.90
27922;DHT22;15261;50.356;10.340;2022-10-16T22:48:41;13.20;99.90
27922;DHT22;15261;50.356;10.340;2022-10-16T22:51:08;13.20;99.90
27922;DHT22;15261;50.356;10.340;2022-10-16T22:53:34;13.10;99.90
27922;DHT22;15261;50.356;10.340;2022-10-16T22:56:00;13.10;99.90
27922;DHT22;15261;50.356;10.340;2022-10-16T22:58:26;13.00;99.90
27922;DHT22;15261;50.356;10.340;2022-10-16T23:00:52;13.00;99.90
27922;DHT22;15261;50.356;10.340;2022-10-16T23:03:17;13.00;99.90
27922;DHT22;15261;50.356;10.340;2022-10-16T23:05:43;13.00;99.90
27922;DHT22;15261;50.356;10.340;2022-10-16T23:08:09;13.00;99.90
27922;DHT22;15261;50.356;10.340;2022-10-16T23:10:39;12.90;99.90
27922;DHT22;15261;50.356;10.340;2022-10-16T23:13:05;12.90;99.90
27922;DHT22;15261;50.356;10.340;2022-10-16T23:15:31;12.90;99.90
27922;DHT22;15261;50.356;10.340;2022-10-16T23:17:56;12.90;99.90
27922;DHT22;15261;50.356;10.340;2022-10-16T23:20:22;12.90;99.90
27922;DHT22;15261;50.356;10.340;2022-10-16T23:22:48;12.80;99.90
27922;DHT22;15261;50.356;10.340;2022-10-16T23:25:14;12.70;99.90
27922;DHT22;15261;50.356;10.340;2022-10-16T23:27:40;12.60;99.90
27922;DHT22;15261;50.356;10.340;2022-10-16T23:30:06;12.50;99.90
27922;DHT22;15261;50.356;10.340;2022-10-16T23:32:32;12.60;99.90
27922;DHT22;15261;50.356;10.340;2022-10-16T23:34:58;12.50;99.90
27922;DHT22;15261;50.356;10.340;2022-10-16T23:37:23;12.50;99.90
27922;DHT22;15261;50.356;10.340;2022-10-16T23:39:50;12.50;99.90
27922;DHT22;15261;50.356;10.340;2022-10-16T23:42:16;12.50;99.90
27922;DHT22;15261;50.356;10.340;2022-10-16T23:44:42;12.50;99.90
27922;DHT22;15261;50.356;10.340;2022-10-16T23:47:07;12.40;99.90
27922;DHT22;15261;50.356;10.340;2022-10-16T23:49:33;12.30;99.90
27922;DHT22;15261;50.356;10.340;2022-10-16T23:51:59;12.40;99.90
27922;DHT22;15261;50.356;10.340;2022-10-16T23:54:25;12.40;99.90
27922;DHT22;15261;50.356;10.340;2022-10-16T23:56:51;12.40;99.90
27922;DHT22;15261;50.356;10.340;2022-10-16T23:59:16;12.40;99.90
